METAR Data
IDs: Format: Raw Decoded Include TAF

Data at: 0642 UTC 23 Feb 2019

PAMO 230616Z AUTO 15024G32KT 10SM BKN017 OVC032 M01/M02 A2999 RMK AO2 PK WND 15036/0430 SNB05040532E05040542 P0000 FZRANO
PAMO 230602Z AUTO 15027G34KT 10SM FEW015 SCT023 OVC032 M01/M02 A2999 RMK AO2 PK WND 15036/0430 SNB05040532E05040542 P0000 FZRANO
PAMO 230532Z AUTO 15027KT 10SM SCT017 OVC029 M01/M02 A2999 RMK AO2 PK WND 15036/0430 SNB0432E0442 P0000 FZRANO
PAMO 230523Z AUTO 15027G33KT 10SM SCT017 SCT026 OVC033 M01/M02 A2999 RMK AO2 PK WND 15036/0430 SNB0432E0442 P0000 FZRANO
PAMO 230502Z AUTO 14028G33KT 10SM BKN019 OVC035 M01/M02 A2999 RMK AO2 PK WND 15036/0430 SNB0432E0442 P0000 FZRANO
PAMO 230458Z AUTO 14027G34KT 10SM SCT019 OVC035 M01/M02 A2999 RMK AO2 PK WND 15036/0430 SNB32E42 P0000 FZRANO
PAMO 230427Z AUTO 15029G34KT 9SM SCT011 BKN023 OVC031 M01/M02 A2999 RMK AO2 PK WND 15034/0427 FZRANO
PAMO 230402Z AUTO 15025G31KT 10SM OVC011 M01/M02 A3000 RMK AO2 PK WND 15036/0303 SNE0334 SLP164 P0000 T10111017 FZRANO
PAMO 230337Z AUTO 15027G32KT 9SM OVC011 M01/M01 A2998 RMK AO2 PK WND 15036/0303 SNE34 CIG 009V014 P0000 FZRANO
PAMO 230323Z AUTO 15029G33KT 3SM -SN BR OVC009 M01/M01 A2998 RMK AO2 PK WND 15036/0303 CIG 007V012 P0000 FZRANO
PAMO 230302Z AUTO 16030KT 1 1/4SM -SN BR OVC009 M01/M01 A2999 RMK AO2 PK WND 15037/0245 UPB0239E0241SNE0239B0241 SLP161 P0000 60000 T10061011 50002 FZRANO
PAMO 230020Z AUTO 15033G39KT 3/4SM -SN BR OVC005 M01/M01 A2997 RMK AO2 PK WND 15040/0005 P0000 FZRANO
PAMO 230002Z AUTO 15033G41KT 3/4SM -SN BR OVC003 M01/M01 A2997 RMK AO2 PK WND 16041/2353 SLP155 P0000 60000 T10061006 11006 21017 58001 FZRANO
PAMO 222332Z AUTO 15031G37KT 3/4SM -SN BR OVC003 M01/M01 A2998 RMK AO2 PK WND 16040/2316 P0000 FZRANO
PAMO 222316Z AUTO 16034G40KT 1/2SM -SN FZFG OVC003 M01/M01 A2997 RMK AO2 PK WND 16040/2316 P0000 FZRANO
PAMO 222302Z AUTO 16031G35KT 3/4SM -SN BR OVC003 M01/M01 A2998 RMK AO2 PK WND 15037/2240 SLP159 P0000 T10061006 FZRANO
PAMO 222252Z AUTO 15029G36KT 3/4SM -SN BR OVC003 M01/M01 A2998 RMK AO2 PK WND 15037/2240 P0000 FZRANO
PAMO 222202Z AUTO 15028G32KT 1/2SM -SN FZFG OVC003 M01/M01 A2999 RMK AO2 PK WND 15036/2129 SLP162 P0000 T10111011 FZRANO
PAMO 222142Z AUTO 15029G35KT 1/2SM -SN FZFG OVC003 M01/M01 A2998 RMK AO2 PK WND 15036/2129 P0000 FZRANO
PAMO 222102Z AUTO 16030G37KT 1/4SM SN FZFG OVC003 M01/M01 A2998 RMK AO2 PK WND 15037/2100 SLP158 P0000 60000 T10111011 53003 FZRANO
PAMO 222002Z AUTO 15027KT 1/4SM SN FZFG OVC003 M01/M01 A2998 RMK AO2 PK WND 15031/2001 SLP160 P0000 T10111011 FZRANO
PAMO 221902Z AUTO 15024G29KT 1/4SM SN FZFG OVC003 M01/M02 A2998 RMK AO2 PK WND 15030/1832 SLP158 P0000 T10111017 FZRANO
PAMO 221814Z AUTO 15027KT 1/2SM SN FZFG OVC003 M02/M02 A2997 RMK AO2 PK WND 15034/1754 SLP157 P0000 60000 T10171017 11011 21017 58007 FZRANO
PAMO 221808Z AUTO 15026KT 1/2SM SN FZFG OVC003 M02/M02 A2997 RMK AO2 PK WND 15034/1754 P0000 FZRANO
PAMO 221802Z AUTO 15028KT 3/4SM -SN BR OVC003 M02/M02 A2997 RMK AO2 PK WND 15034/1754 P0000 FZRANO
PAMO 221733Z AUTO 15026KT 1/2SM SN FZFG OVC003 M02/M02 A2997 RMK AO2 PK WND 15033/1723 P0000 FZRANO
PAMO 221646Z AUTO 15026G31KT 1/4SM +SN FZFG OVC003 M01/M02 A2998 RMK AO2 PK WND 15034/1624 P0000 FZRANO
PAMO 221602Z AUTO 15027KT 1/2SM SN FZFG OVC003 M02/M02 A2999 RMK AO2 PK WND 16033/1552 SLP162 P0000 T10171017 FZRANO
PAMO 221524Z AUTO 15026KT 1/2SM SN FZFG OVC003 M02/M02 A2999 RMK AO2 PK WND 16033/1512 P0000 FZRANO
PAMO 221511Z AUTO 15027G33KT 3/4SM -SN BR OVC003 M02/M02 A2999 RMK AO2 PK WND 15033/1506 SLP164 P0000 60000 T10171017 56013 FZRANO
PAMO 221502Z AUTO 15027G33KT 3/4SM -SN BR OVC003 M02/M02 A3000 RMK AO2 PK WND 15033/1502 P0000 FZRANO
PAMO 221457Z AUTO 15027G31KT 1/2SM SN FZFG OVC003 M02/M02 A3000 RMK AO2 PK WND 16033/1416 P0000 FZRANO
PAMO 221311Z AUTO 15025G30KT 3/4SM -SN BR OVC003 M02/M02 A3002 RMK AO2 PK WND 15030/1307 P0000 FZRANO
PAMO 221302Z AUTO 15024G29KT 1 1/2SM -SN BR OVC003 M02/M02 A3002 RMK AO2 PK WND 15029/1300 SLP174 P0000 T10171022 FZRANO
PAMO 221248Z AUTO 15023G28KT 1 1/2SM -SN BR OVC003 M02/M02 A3003 RMK AO2 PK WND 15028/1243 P0000 FZRANO
PAMO 221218Z AUTO 15020KT 2SM -SN BR OVC003 M02/M02 A3004 RMK AO2 PK WND 15026/1214 P0000 FZRANO
PAMO 221200Z AUTO 15020KT 1/2SM -SN FZFG OVC003 M02/M02 A3004 RMK AO2 P0000 FZRANO
PAMO 221154Z AUTO 15020KT 1SM -SN BR OVC003 M02/M02 A3004 RMK AO2 PK WND 15029/1134 SLP178 P0000 T10171022 FZRANO
PAMO 221142Z AUTO 15023G29KT 1SM -SN BR OVC003 M02/M02 A3003 RMK AO2 PK WND 15029/1134 P0000 FZRANO
PAMO 221111Z AUTO 15023G27KT 3/4SM -SN BR OVC003 M02/M02 A3004 RMK AO2 PK WND 15027/1111 P0000 FZRANO
PAMO 221051Z AUTO 15019KT 3/4SM -SN BR OVC003 M02/M02 A3005 RMK AO2 PK WND 15027/1023 P0000 FZRANO
PAMO 221002Z AUTO 15022KT 1 1/2SM -SN BR OVC003 M02/M03 A3005 RMK AO2 PK WND 16026/1000 SLP182 P0000 T10221028 FZRANO
PAMO 220950Z AUTO 15020G25KT 1 1/4SM -SN BR OVC003 M02/M03 A3004 RMK AO2 P0000 FZRANO
PAMO 220940Z AUTO 14017KT 3/4SM -SN BR OVC003 M02/M03 A3005 RMK AO2 P0000 FZRANO
PAMO 220909Z AUTO 14018KT 1 1/4SM -SN BR OVC003 M03/M03 A3005 RMK AO2 P0000 FZRANO
PAMO 220902Z AUTO 15017KT 3/4SM -SN BR OVC003 M03/M03 A3006 RMK AO2 SLP185 P0000 60000 T10281028 55002 FZRANO
PAMO 220850Z AUTO 15018G23KT 3/4SM -SN BR OVC003 M03/M03 A3006 RMK AO2 P0000 FZRANO
PAMO 220820Z AUTO 14015KT 1 3/4SM -SN BR OVC003 M03/M04 A3007 RMK AO2 P0000 FZRANO
PAMO 220808Z AUTO 14014KT 2SM -SN BR OVC003 M03/M04 A3007 RMK AO2 SLP189 P0000 T10331039 410331033 FZRANO
PAMO 220755Z AUTO 14014KT 1 1/2SM -SN BR OVC003 M03/M04 A3007 RMK AO2 P0000 FZRANO
PAMO 220744Z AUTO 14015KT 2SM -SN BR OVC003 M03/M04 A3007 RMK AO2 P0000 FZRANO
PAMO 220644Z AUTO 14011KT 2 1/2SM -SN BR BKN003 OVC025 M04/M05 A3007 RMK AO2 P0000 FZRANO
PAMO 220631Z AUTO 14011KT 5SM -SN BR SCT003 BKN025 OVC032 M04/M05 A3007 RMK AO2 P0000 FZRANO
PAMO 220622Z AUTO 13009KT 4SM -SN BR SCT003 BKN032 OVC042 M05/M06 A3007 RMK AO2 P0000 FZRANO
PAMO 220602Z AUTO 14010KT 5SM -SN BR OVC038 M05/M06 A3008 RMK AO2 SNB0514 SLP193 P0000 60000 T10501056 11022 21067 57002 FZRANO
PAMO 220543Z AUTO 14011KT 6SM -SN BR SCT022 OVC038 M05/M06 A3008 RMK AO2 SNB14 P0000 FZRANO
PAMO 220508Z AUTO 13009KT 10SM BKN026 OVC039 M06/M07 A3008 RMK AO2 SLP194 T10611072 FZRANO
PAMO 220502Z AUTO 13008KT 10SM BKN026 BKN031 OVC039 M07/M07 A3008 RMK AO2 FZRANO
PAMO 220402Z AUTO 12007KT 10SM FEW040 M07/M08 A3008 RMK AO2 SLP195 T10671078 FZRANO
PAMO 220302Z AUTO 18009KT 10SM FEW043 M04/M06 A3009 RMK AO2 SLP196 60000 T10441061 51015 FZRANO
PAMO 220202Z AUTO 21011KT 10SM CLR M04/M06 A3007 RMK AO2 SNB0116E0140 SLP191 P0000 T10391061 FZRANO
PAMO 220102Z AUTO 21012KT 9SM BKN041 M02/M05 A3006 RMK AO2 SLP188 T10221050 FZRANO
PAMO 220002Z AUTO 22012KT 10SM OVC039 M03/M06 A3005 RMK AO2 SLP182 60000 T10281056 11022 21033 53004 FZRANO
PAMO 212302Z AUTO 22015G18KT 10SM OVC039 M03/M05 A3003 RMK AO2 SNE2221222022212250B22212240E2233 SLP175 P0000 T10281050 FZRANO
PAMO 212211Z AUTO 22012KT 9SM -SN SCT013 BKN030 OVC037 M03/M04 A3002 RMK AO2 SNE21202150B2140 P0000 FZRANO
PAMO 212202Z AUTO 23011G16KT 9SM -SN BKN013 BKN023 OVC031 M03/M04 A3002 RMK AO2 SNE21202150B2140 P0000 FZRANO
PAMO 212102Z AUTO 24011G18KT 8SM FEW009 SCT024 BKN033 M03/M05 A2999 RMK AO2 SNE2050 P0000 FZRANO
PAMO 212052Z AUTO 23014KT 7SM SCT007 BKN024 BKN028 M03/M04 A2999 RMK AO2 SNE50 P0000 FZRANO
PAMO 212002Z AUTO 24019G23KT 2 1/2SM -SN BR OVC005 M03/M04 A2996 RMK AO2 CIG 004V008 SLP151 P0000 T10331039 FZRANO
PAMO 212000Z AUTO 25016G21KT 2SM -SN BR OVC005 M03/M04 A2996 RMK AO2 CIG 004V009 P0000 FZRANO
PAMO 211954Z AUTO 25013G21KT 1SM -SN BR OVC005 M03/M04 A2995 RMK AO2 CIG 004V009 P0000 FZRANO
PAMO 211950Z AUTO 25014G21KT 1/2SM -SN FZFG OVC005 M03/M04 A2995 RMK AO2 CIG 004V009 P0000 FZRANO
PAMO 211941Z AUTO 23014G20KT 1/2SM -SN FZFG OVC007 M03/M04 A2994 RMK AO2 CIG 004V009 P0000 FZRANO
PAMO 211938Z AUTO 23015G20KT 1SM -SN BR BKN007 OVC010 M03/M04 A2994 RMK AO2 VIS 1/4V4 CIG 004V008 P0000 FZRANO
PAMO 211935Z AUTO 22011G16KT 2SM -SN BR OVC007 M03/M04 A2994 RMK AO2 VIS 1 1/2V4 CIG 004V010 P0000 FZRANO
PAMO 211927Z AUTO 23011G16KT 1SM -SN BR BKN007 OVC011 M03/M04 A2994 RMK AO2 SNB1808 CIG 004V008 SLP145 P0000 T10331044 FZRANO
PAMO 211920Z AUTO 24008KT 1SM -SN BR BKN007 OVC013 M03/M04 A2994 RMK AO2 SNB1808 CIG 004V008 P0000 FZRANO
PAMO 211902Z AUTO 21008KT 6SM -SN BR BKN013 OVC023 M04/M05 A2993 RMK AO2 SNB1808 P0000 FZRANO